createdAt,value
2022-12-26T00:01:03.121Z,52.30
2022-12-26T00:03:30.954Z,54.35
2022-12-26T00:05:58.356Z,106.35
2022-12-26T00:08:25.559Z,58.40
2022-12-26T00:10:52.787Z,55.17
2022-12-26T00:13:40.151Z,49.95
2022-12-26T00:16:08.955Z,84.53
2022-12-26T00:18:36.269Z,45.67
2022-12-26T00:21:03.491Z,51.70
2022-12-26T00:23:35.521Z,65.00
2022-12-26T00:26:04.472Z,82.72
2022-12-26T00:28:31.883Z,60.40
2022-12-26T00:30:59.381Z,53.90
2022-12-26T00:33:27.705Z,46.28
2022-12-26T00:35:54.863Z,52.60
2022-12-26T00:38:22.110Z,41.47
2022-12-26T00:40:49.290Z,43.15
2022-12-26T00:43:16.374Z,41.30
2022-12-26T00:45:47.907Z,37.13
2022-12-26T00:48:15.305Z,53.45
2022-12-26T00:50:42.760Z,59.65
2022-12-26T00:53:09.975Z,48.08
2022-12-26T00:55:37.055Z,70.60
2022-12-26T00:58:05.158Z,50.55
2022-12-26T01:00:33.351Z,41.45
2022-12-26T01:03:00.696Z,58.30
2022-12-26T01:05:28.316Z,38.05
2022-12-26T01:08:22.091Z,46.00
2022-12-26T01:10:44.793Z,39.80
2022-12-26T01:13:12.227Z,43.80
2022-12-26T01:15:39.586Z,45.97
2022-12-26T01:18:07.608Z,46.97
2022-12-26T01:20:34.943Z,52.92
2022-12-26T01:23:02.064Z,48.33
2022-12-26T01:25:29.347Z,55.33
2022-12-26T01:27:56.493Z,53.15
2022-12-26T01:30:23.783Z,40.00
2022-12-26T01:32:51.057Z,35.70
2022-12-26T01:35:20.611Z,35.60
2022-12-26T01:37:47.902Z,48.20
2022-12-26T01:40:15.153Z,35.50
2022-12-26T01:42:42.642Z,33.85
2022-12-26T01:45:30.801Z,40.05
2022-12-26T01:48:17.141Z,32.22
2022-12-26T01:51:00.930Z,31.73
2022-12-26T01:53:39.645Z,33.10
2022-12-26T01:56:12.371Z,41.97
2022-12-26T01:58:57.696Z,30.73
2022-12-26T02:01:29.246Z,27.88
2022-12-26T02:04:15.185Z,34.97
2022-12-26T02:06:43.301Z,46.13
2022-12-26T02:09:10.789Z,53.13
2022-12-26T02:11:48.749Z,49.35
2022-12-26T02:14:37.396Z,52.17
2022-12-26T02:17:05.610Z,40.75
2022-12-26T02:19:59.428Z,38.90
2022-12-26T02:22:38.635Z,48.00
2022-12-26T02:25:39.790Z,40.63
2022-12-26T02:28:25.315Z,42.38
2022-12-26T02:31:23.877Z,56.47
2022-12-26T02:34:03.070Z,46.40
2022-12-26T02:36:41.719Z,43.25
2022-12-26T02:39:43.407Z,42.47
2022-12-26T02:42:35.722Z,39.80
2022-12-26T02:45:28.803Z,34.42
2022-12-26T02:52:21.581Z,47.47
2022-12-26T02:55:26.051Z,54.10
2022-12-26T02:58:39.100Z,41.35
2022-12-26T03:01:38.128Z,41.80
2022-12-26T03:04:28.917Z,48.55
2022-12-26T03:07:18.181Z,45.22
2022-12-26T03:10:06.338Z,37.33
2022-12-26T03:13:13.426Z,41.83
2022-12-26T03:16:17.939Z,33.40
2022-12-26T03:18:57.731Z,56.55
2022-12-26T03:21:32.484Z,47.45
2022-12-26T03:24:00.023Z,59.97
2022-12-26T03:26:41.622Z,29.77
2022-12-26T03:29:31.940Z,40.72
2022-12-26T03:32:00.317Z,47.60
2022-12-26T03:34:28.498Z,60.92
2022-12-26T03:37:48.910Z,51.50
2022-12-26T03:41:08.378Z,52.78
2022-12-26T03:44:13.616Z,50.20
2022-12-26T03:47:17.719Z,40.35
2022-12-26T03:50:06.071Z,43.97
2022-12-26T03:53:03.516Z,55.35
2022-12-26T03:56:19.526Z,52.33
2022-12-26T03:59:26.926Z,37.13
2022-12-26T04:02:15.012Z,54.13
2022-12-26T04:05:04.571Z,37.35
2022-12-26T04:07:59.489Z,45.38
2022-12-26T04:10:56.953Z,40.47
2022-12-26T04:13:54.822Z,49.20
2022-12-26T04:16:57.084Z,61.63
2022-12-26T04:19:58.992Z,65.70
2022-12-26T04:23:20.780Z,46.13
2022-12-26T04:26:36.803Z,66.85
2022-12-26T04:29:23.510Z,89.13
2022-12-26T04:32:23.487Z,83.47
2022-12-26T04:35:22.827Z,63.22
2022-12-26T04:38:10.005Z,54.20
2022-12-26T04:41:05.811Z,84.20
2022-12-26T04:43:53.516Z,77.38
2022-12-26T04:46:23.198Z,60.22
2022-12-26T04:49:11.290Z,62.92
2022-12-26T04:51:38.958Z,66.18
2022-12-26T04:54:07.108Z,47.60
2022-12-26T04:56:34.520Z,55.35
2022-12-26T04:59:01.942Z,50.10
2022-12-26T05:01:47.863Z,66.00
2022-12-26T05:04:35.134Z,53.38
2022-12-26T05:07:37.985Z,64.68
2022-12-26T05:10:07.749Z,60.15
2022-12-26T05:12:35.407Z,45.50
2022-12-26T05:15:02.598Z,50.90
2022-12-26T05:17:48.387Z,60.28
2022-12-26T05:23:21.009Z,45.97
2022-12-26T05:26:07.846Z,41.35
2022-12-26T05:28:44.353Z,42.08
2022-12-26T05:31:18.003Z,39.30
2022-12-26T05:34:04.031Z,52.72
2022-12-26T05:36:53.233Z,46.00
2022-12-26T05:39:20.595Z,53.65
2022-12-26T05:41:47.771Z,38.67
2022-12-26T05:44:15.178Z,49.00
2022-12-26T05:46:47.082Z,54.67
2022-12-26T05:49:14.341Z,54.90
2022-12-26T05:51:41.619Z,62.83
2022-12-26T05:54:08.841Z,59.40
2022-12-26T05:56:36.117Z,120.10
2022-12-26T05:59:03.382Z,66.28
2022-12-26T06:01:31.369Z,81.72
2022-12-26T06:04:00.447Z,59.38
2022-12-26T06:06:28.179Z,58.72
2022-12-26T06:08:57.260Z,59.53
2022-12-26T06:11:26.756Z,58.17
2022-12-26T06:13:54.432Z,56.63
2022-12-26T06:16:21.727Z,63.67
2022-12-26T06:18:49.976Z,52.40
2022-12-26T06:21:21.231Z,45.13
2022-12-26T06:23:49.459Z,67.88
2022-12-26T06:26:17.488Z,51.03
2022-12-26T06:28:45.392Z,35.65
2022-12-26T06:31:16.364Z,40.35
2022-12-26T06:33:44.371Z,46.15
2022-12-26T06:36:14.546Z,55.13
2022-12-26T06:38:42.495Z,38.47
2022-12-26T06:41:12.839Z,42.70
2022-12-26T06:43:40.174Z,48.40
2022-12-26T06:46:08.613Z,49.13
2022-12-26T06:48:40.007Z,40.03
2022-12-26T06:51:10.521Z,42.70
2022-12-26T06:53:38.085Z,42.00
2022-12-26T06:56:14.462Z,49.20
2022-12-26T06:58:42.223Z,33.47
2022-12-26T07:01:12.965Z,48.53
2022-12-26T07:03:46.617Z,40.47
2022-12-26T07:06:31.583Z,50.88
2022-12-26T07:09:08.699Z,43.00
2022-12-26T07:11:38.360Z,46.05
2022-12-26T07:14:05.843Z,36.33
2022-12-26T07:16:35.905Z,38.00
2022-12-26T07:19:03.650Z,33.92
2022-12-26T07:21:36.308Z,32.58
2022-12-26T07:24:17.360Z,30.63
2022-12-26T07:26:45.665Z,31.13
2022-12-26T07:29:13.999Z,31.10
2022-12-26T07:31:41.609Z,27.25
2022-12-26T07:34:08.890Z,28.27
2022-12-26T07:36:36.132Z,21.58
2022-12-26T07:39:03.841Z,22.33
2022-12-26T07:41:49.909Z,22.65
2022-12-26T07:44:17.479Z,17.90
2022-12-26T07:46:46.923Z,18.52
2022-12-26T07:49:14.741Z,16.27
2022-12-26T07:51:43.145Z,14.75
2022-12-26T07:54:12.056Z,21.83
2022-12-26T07:56:40.830Z,18.45
2022-12-26T07:59:13.060Z,15.65
2022-12-26T08:01:43.636Z,17.85
2022-12-26T08:04:13.030Z,19.65
2022-12-26T08:06:40.379Z,19.60
2022-12-26T08:09:08.476Z,16.40
2022-12-26T08:11:36.145Z,18.88
2022-12-26T08:14:03.660Z,16.52
2022-12-26T08:16:31.589Z,16.67
2022-12-26T08:18:59.164Z,16.42
2022-12-26T08:21:26.523Z,18.02
2022-12-26T08:23:53.799Z,21.88
2022-12-26T08:26:22.967Z,19.33
2022-12-26T08:28:51.477Z,23.63
2022-12-26T08:31:21.092Z,27.23
2022-12-26T08:33:49.418Z,29.58
2022-12-26T08:36:19.990Z,27.52
2022-12-26T08:38:47.427Z,28.38
2022-12-26T08:41:15.189Z,24.13
2022-12-26T08:46:29.525Z,29.30
2022-12-26T08:48:56.679Z,36.33
2022-12-26T08:51:25.545Z,37.58
2022-12-26T08:53:55.512Z,34.63
2022-12-26T08:56:26.408Z,42.83
2022-12-26T08:58:54.149Z,36.38
2022-12-26T09:01:27.462Z,38.88
2022-12-26T09:03:56.814Z,45.17
2022-12-26T09:06:24.538Z,51.83
2022-12-26T09:08:51.885Z,39.83
2022-12-26T09:11:22.392Z,47.67
2022-12-26T09:13:49.504Z,44.00
2022-12-26T09:16:19.654Z,49.38
2022-12-26T09:18:48.673Z,53.38
2022-12-26T09:21:17.050Z,52.45
2022-12-26T09:23:44.559Z,51.67
2022-12-26T09:26:18.020Z,71.90
2022-12-26T09:28:47.343Z,59.63
2022-12-26T09:31:18.044Z,45.55
2022-12-26T09:33:47.424Z,56.97
2022-12-26T09:36:17.466Z,52.25
2022-12-26T09:38:45.691Z,50.42
2022-12-26T09:41:40.637Z,61.20
2022-12-26T09:44:22.767Z,53.97
2022-12-26T09:47:01.485Z,55.65
2022-12-26T09:49:34.957Z,60.03
2022-12-26T09:52:10.809Z,66.68
2022-12-26T09:54:43.854Z,64.90
2022-12-26T09:57:28.760Z,66.78
2022-12-26T10:00:01.741Z,66.43
2022-12-26T10:02:29.553Z,61.45
2022-12-26T10:04:57.025Z,63.47
2022-12-26T10:07:44.753Z,58.88
2022-12-26T10:10:41.448Z,61.47
2022-12-26T10:13:36.816Z,66.13
2022-12-26T10:16:16.251Z,62.45
2022-12-26T10:18:59.903Z,59.92
2022-12-26T10:21:59.554Z,57.78
2022-12-26T10:24:30.987Z,69.38
2022-12-26T10:27:05.617Z,57.03
2022-12-26T10:29:45.447Z,54.90
2022-12-26T10:32:23.064Z,56.92
2022-12-26T10:34:55.376Z,49.97
2022-12-26T10:37:35.788Z,62.65
2022-12-26T10:40:09.298Z,52.88
2022-12-26T10:42:45.048Z,52.45
2022-12-26T10:45:25.595Z,58.42
2022-12-26T10:47:54.115Z,55.30
2022-12-26T10:50:30.868Z,53.90
2022-12-26T10:53:00.309Z,52.90
2022-12-26T10:55:34.458Z,54.40
2022-12-26T10:58:30.397Z,58.03
2022-12-26T11:00:57.719Z,57.40
2022-12-26T11:03:25.129Z,53.72
2022-12-26T11:06:10.654Z,59.47
2022-12-26T11:09:01.084Z,50.70
2022-12-26T11:11:46.349Z,51.38
2022-12-26T11:14:34.298Z,53.13
2022-12-26T11:17:08.554Z,53.20
2022-12-26T11:19:39.360Z,54.15
2022-12-26T11:22:29.377Z,48.00
2022-12-26T11:25:10.208Z,45.63
2022-12-26T11:27:42.730Z,53.13
2022-12-26T11:30:18.489Z,51.38
2022-12-26T11:32:49.839Z,51.55
2022-12-26T11:35:26.025Z,52.75
2022-12-26T11:37:58.907Z,54.75
2022-12-26T11:40:31.389Z,56.75
2022-12-26T11:43:00.950Z,49.67
2022-12-26T11:45:34.017Z,59.15
2022-12-26T11:48:19.346Z,46.78
2022-12-26T11:50:46.994Z,45.35
2022-12-26T11:53:18.079Z,46.47
2022-12-26T11:56:00.106Z,44.20
2022-12-26T11:58:29.952Z,42.92
2022-12-26T12:00:59.832Z,43.20
2022-12-26T12:03:50.110Z,43.75
2022-12-26T12:06:43.573Z,38.50
2022-12-26T12:09:38.277Z,34.88
2022-12-26T12:12:22.582Z,39.70
2022-12-26T12:15:13.650Z,35.67
2022-12-26T12:18:18.129Z,37.33
2022-12-26T12:21:14.413Z,37.08
2022-12-26T12:24:00.257Z,33.88
2022-12-26T12:26:34.715Z,35.72
2022-12-26T12:29:30.231Z,34.00
2022-12-26T12:32:20.763Z,31.58
2022-12-26T12:35:03.644Z,27.23
2022-12-26T12:38:09.101Z,29.40
2022-12-26T12:40:51.693Z,30.70
2022-12-26T12:43:49.283Z,28.85
2022-12-26T12:46:20.010Z,24.10
2022-12-26T12:49:15.288Z,21.27
2022-12-26T12:52:06.421Z,23.97
2022-12-26T12:54:57.559Z,27.17
2022-12-26T12:57:43.496Z,21.90
2022-12-26T13:00:21.885Z,23.00
2022-12-26T13:03:10.698Z,18.23
2022-12-26T13:05:43.351Z,16.98
2022-12-26T13:08:35.187Z,19.13
2022-12-26T13:11:35.926Z,18.30
2022-12-26T13:14:26.673Z,18.95
2022-12-26T13:17:08.277Z,14.82
2022-12-26T13:20:13.712Z,12.65
2022-12-26T13:23:23.298Z,24.75
2022-12-26T13:26:11.545Z,13.38
2022-12-26T13:28:52.186Z,13.70
2022-12-26T13:31:21.055Z,16.42
2022-12-26T13:33:49.183Z,13.25
2022-12-26T13:36:39.678Z,17.80
2022-12-26T13:39:33.392Z,13.32
2022-12-26T13:42:31.232Z,11.80
2022-12-26T13:45:36.421Z,15.40
2022-12-26T13:48:27.878Z,14.30
2022-12-26T13:51:01.005Z,14.40
2022-12-26T13:53:34.465Z,15.65
2022-12-26T13:56:31.590Z,15.18
2022-12-26T13:58:59.438Z,10.52
2022-12-26T14:01:27.398Z,14.50
2022-12-26T14:04:31.743Z,11.85
2022-12-26T14:07:18.422Z,11.20
2022-12-26T14:09:55.028Z,9.93
2022-12-26T14:12:50.377Z,7.22
2022-12-26T14:15:29.074Z,11.53
2022-12-26T14:18:38.438Z,8.27
2022-12-26T14:21:50.700Z,8.10
2022-12-26T14:24:50.955Z,3.25
2022-12-26T14:27:59.670Z,6.05
2022-12-26T14:30:52.164Z,6.30
2022-12-26T14:33:40.481Z,3.47
2022-12-26T14:36:42.806Z,4.82
2022-12-26T14:39:48.094Z,35.40
2022-12-26T14:42:43.094Z,34.53
2022-12-26T14:45:28.785Z,9.00
2022-12-26T14:47:56.398Z,57.83
2022-12-26T14:50:37.080Z,53.80
2022-12-26T14:53:33.559Z,9.35
2022-12-26T14:56:15.619Z,11.43
2022-12-26T14:58:49.950Z,5.22
2022-12-26T15:01:18.265Z,11.80
2022-12-26T15:03:58.652Z,8.93
2022-12-26T15:06:56.230Z,5.05
2022-12-26T15:10:00.780Z,8.77
2022-12-26T15:12:56.714Z,6.60
2022-12-26T15:15:57.827Z,6.43
2022-12-26T15:18:44.201Z,9.50
2022-12-26T15:21:29.666Z,4.68
2022-12-26T15:25:17.604Z,15.27
2022-12-26T15:28:00.680Z,3.72
2022-12-26T15:31:26.877Z,4.95
2022-12-26T15:33:59.700Z,5.30
2022-12-26T15:36:45.257Z,3.25
2022-12-26T15:39:33.293Z,2.17
2022-12-26T15:42:18.591Z,5.68
2022-12-26T15:44:51.943Z,8.55
2022-12-26T15:47:49.452Z,5.63
2022-12-26T15:50:47.488Z,6.45
2022-12-26T15:53:36.689Z,1.50
2022-12-26T15:56:28.753Z,7.68
2022-12-26T15:59:21.397Z,8.25
2022-12-26T16:01:53.507Z,4.18
2022-12-26T16:04:37.959Z,3.72
2022-12-26T16:07:23.461Z,4.55
2022-12-26T16:09:53.356Z,3.05
2022-12-26T16:12:23.533Z,4.00
2022-12-26T16:14:59.820Z,9.75
2022-12-26T16:17:28.310Z,10.48
2022-12-26T16:19:55.768Z,3.88
2022-12-26T16:22:47.158Z,11.27
2022-12-26T16:25:22.044Z,8.38
2022-12-26T16:27:53.263Z,7.78
2022-12-26T16:30:23.955Z,10.32
2022-12-26T16:32:52.734Z,10.43
2022-12-26T16:35:28.238Z,6.72
2022-12-26T16:37:58.434Z,7.80
2022-12-26T16:40:43.744Z,7.88
2022-12-26T16:43:20.022Z,6.95
2022-12-26T16:45:49.808Z,14.30
2022-12-26T16:48:20.938Z,10.77
2022-12-26T16:50:52.103Z,8.85
2022-12-26T16:53:43.255Z,11.75
2022-12-26T16:56:28.119Z,8.15
2022-12-26T16:59:17.636Z,13.80
2022-12-26T17:01:51.939Z,9.85
2022-12-26T17:04:23.277Z,13.15
2022-12-26T17:07:06.733Z,11.00
2022-12-26T17:09:46.011Z,17.70
2022-12-26T17:12:25.196Z,14.05
2022-12-26T17:14:55.006Z,5.93
2022-12-26T17:17:23.206Z,22.65
2022-12-26T17:19:54.387Z,10.85
2022-12-26T17:22:33.989Z,9.13
2022-12-26T17:25:26.774Z,10.88
2022-12-26T17:28:09.681Z,8.60
2022-12-26T17:30:49.108Z,15.25
2022-12-26T17:33:21.587Z,18.58
2022-12-26T17:39:19.754Z,7.88
2022-12-26T17:42:01.658Z,197.60
2022-12-26T17:44:43.726Z,48.75
2022-12-26T17:47:25.395Z,19.65
2022-12-26T17:49:53.856Z,13.15
2022-12-26T17:52:26.617Z,13.85
2022-12-26T17:54:54.404Z,13.07
2022-12-26T17:57:25.802Z,10.55
2022-12-26T17:59:54.520Z,12.57
2022-12-26T18:02:22.267Z,13.23
2022-12-26T18:04:50.789Z,5.82
2022-12-26T18:07:27.123Z,10.90
2022-12-26T18:09:57.944Z,10.65
2022-12-26T18:12:25.897Z,7.15
2022-12-26T18:14:59.284Z,5.78
2022-12-26T18:17:32.004Z,8.68
2022-12-26T18:19:59.224Z,14.00
2022-12-26T18:22:26.657Z,9.02
2022-12-26T18:24:54.013Z,6.30
2022-12-26T18:27:27.455Z,17.73
2022-12-26T18:29:54.711Z,19.77
2022-12-26T18:32:28.568Z,14.57
2022-12-26T18:34:56.325Z,11.07
2022-12-26T18:37:25.932Z,6.97
2022-12-26T18:39:53.743Z,21.38
2022-12-26T18:42:21.095Z,13.48
2022-12-26T18:44:48.361Z,13.07
2022-12-26T18:47:18.176Z,12.07
2022-12-26T18:49:46.068Z,20.08
2022-12-26T18:52:17.858Z,7.57
2022-12-26T18:54:45.789Z,16.65
2022-12-26T18:57:19.104Z,10.60
2022-12-26T18:59:48.544Z,8.10
2022-12-26T19:02:18.443Z,10.98
2022-12-26T19:04:51.272Z,10.32
2022-12-26T19:07:22.770Z,9.65
2022-12-26T19:09:55.191Z,16.75
2022-12-26T19:12:23.891Z,7.75
2022-12-26T19:14:51.413Z,7.97
2022-12-26T19:17:18.895Z,9.80
2022-12-26T19:19:47.697Z,4.65
2022-12-26T19:22:14.980Z,12.43
2022-12-26T19:24:42.090Z,11.85
2022-12-26T19:27:09.894Z,9.00
2022-12-26T19:29:37.030Z,20.92
2022-12-26T19:32:04.754Z,21.27
2022-12-26T19:34:34.204Z,9.10
2022-12-26T19:37:05.695Z,17.85
2022-12-26T19:39:33.372Z,11.15
2022-12-26T19:42:01.248Z,11.88
2022-12-26T19:44:30.494Z,12.05
2022-12-26T19:47:11.778Z,9.45
2022-12-26T19:49:45.812Z,18.73
2022-12-26T19:52:13.281Z,16.40
2022-12-26T19:54:40.501Z,13.07
2022-12-26T19:57:07.850Z,8.32
2022-12-26T19:59:35.099Z,17.58
2022-12-26T20:02:02.533Z,17.02
2022-12-26T20:04:30.634Z,10.57
2022-12-26T20:07:01.673Z,18.48
2022-12-26T20:09:29.375Z,17.65
2022-12-26T20:11:57.322Z,14.52
2022-12-26T20:14:26.736Z,14.25
2022-12-26T20:17:08.304Z,14.32
2022-12-26T20:19:36.960Z,10.85
2022-12-26T20:22:05.236Z,14.35
2022-12-26T20:24:35.815Z,14.57
2022-12-26T20:27:06.385Z,249.18
2022-12-26T20:29:33.838Z,43.90
2022-12-26T20:32:01.060Z,21.45
2022-12-26T20:34:28.412Z,22.33
2022-12-26T20:36:55.698Z,18.25
2022-12-26T20:39:23.647Z,10.48
2022-12-26T20:41:51.361Z,18.27
2022-12-26T20:44:19.042Z,9.90
2022-12-26T20:46:47.016Z,22.67
2022-12-26T20:49:14.687Z,12.70
2022-12-26T20:51:44.445Z,17.77
2022-12-26T20:54:13.939Z,25.10
2022-12-26T20:56:42.443Z,23.15
2022-12-26T20:59:10.182Z,9.35
2022-12-26T21:01:38.335Z,14.32
2022-12-26T21:04:06.063Z,12.30
2022-12-26T21:06:36.676Z,12.98
2022-12-26T21:09:05.705Z,9.93
2022-12-26T21:11:36.405Z,16.52
2022-12-26T21:14:07.455Z,16.23
2022-12-26T21:16:58.867Z,12.25
2022-12-26T21:19:28.508Z,10.15
2022-12-26T21:21:56.926Z,13.75
2022-12-26T21:24:30.321Z,9.07
2022-12-26T21:26:57.787Z,10.20
2022-12-26T21:29:35.842Z,11.45
2022-12-26T21:32:04.391Z,8.15
2022-12-26T21:34:33.462Z,22.05
2022-12-26T21:37:20.046Z,7.53
2022-12-26T21:39:47.797Z,9.38
2022-12-26T21:42:15.042Z,13.05
2022-12-26T21:44:42.432Z,14.38
2022-12-26T21:47:09.642Z,12.63
2022-12-26T21:49:37.442Z,10.35
2022-12-26T21:52:06.374Z,8.82
2022-12-26T21:54:53.278Z,11.85
2022-12-26T21:57:21.603Z,18.65
2022-12-26T21:59:57.970Z,13.30
2022-12-26T22:02:55.324Z,6.32
2022-12-26T22:05:26.489Z,15.52
2022-12-26T22:08:01.711Z,17.73
2022-12-26T22:13:16.808Z,13.25
2022-12-26T22:16:06.262Z,10.15
2022-12-26T22:18:47.757Z,14.27
2022-12-26T22:21:21.293Z,9.57
2022-12-26T22:23:52.280Z,17.13
2022-12-26T22:26:21.715Z,17.35
2022-12-26T22:28:49.187Z,15.30
2022-12-26T22:31:33.397Z,12.43
2022-12-26T22:34:30.848Z,17.80
2022-12-26T22:36:58.231Z,14.60
2022-12-26T22:39:25.318Z,12.50
2022-12-26T22:41:56.250Z,6.93
2022-12-26T22:44:26.054Z,17.13
2022-12-26T22:46:53.264Z,13.77
2022-12-26T22:49:20.540Z,14.60
2022-12-26T22:51:47.735Z,10.15
2022-12-26T22:54:14.934Z,37.47
2022-12-26T22:56:42.082Z,18.77
2022-12-26T22:59:33.909Z,10.93
2022-12-26T23:01:59.470Z,12.55
2022-12-26T23:04:30.813Z,9.07
2022-12-26T23:06:58.845Z,8.60
2022-12-26T23:09:26.359Z,16.83
2022-12-26T23:12:12.467Z,15.88
2022-12-26T23:14:40.064Z,10.98
2022-12-26T23:17:14.094Z,10.15
2022-12-26T23:20:07.877Z,9.82
2022-12-26T23:22:35.181Z,15.52
2022-12-26T23:25:02.787Z,11.02
2022-12-26T23:27:48.558Z,8.82
2022-12-26T23:30:18.936Z,15.80
2022-12-26T23:32:51.356Z,15.50
2022-12-26T23:35:20.368Z,12.95
2022-12-26T23:37:47.635Z,6.40
2022-12-26T23:40:16.511Z,7.72
2022-12-26T23:42:44.263Z,14.07
2022-12-26T23:45:13.594Z,13.70
2022-12-26T23:47:42.636Z,10.07
2022-12-26T23:50:11.715Z,13.70
2022-12-26T23:52:39.119Z,12.20
2022-12-26T23:55:07.001Z,8.70
2022-12-26T23:57:34.436Z,11.73
